Terminal Aerodrome Forecast
Issued by NWS Cleveland, OH

Home | Current Version | Previous Version | Graphics & Text | Print | Product List | Glossary On
Versions: 1 2 3 4 5 6 7 8 9 10 11 12 13 14 15 16 17 18 19 20 21 22
000
FTUS41 KCLE 241100
TAFCAK
TAF
KCAK 241130Z 2412/2512 10005KT 6SM BR SCT015
      TEMPO 2412/2413 4SM BR BKN015
     FM241500 09007KT P6SM BKN015
     FM241800 10007KT P6SM BKN030
     FM250000 10006KT P6SM FEW035 SCT250
     FM250800 12005KT 3SM BR SCT005=

USA.gov is the U.S. government's official web portal to all federal, state and local government web resources and services.